Time;durP1;ratioP1;P1;durP2;ratioP2;P2;SDS_P1;SDS_P2;PMS_P1;PMS_P2;Temp;Humidity;BMP_temperature;BMP_pressure;BME280_temperature;BME280_humidity;BME280_pressure;Samples;Min_cycle;Max_cycle;Signal;HPM_P1;HPM_P2
2022/11/13 00:01:54;;;;;;;16.70;10.23;;;;;;;9.73;81.69;102728.25;5016860;28;20079;-50
2022/11/13 00:04:20;;;;;;;17.42;9.93;;;;;;;9.73;81.78;102729.94;5014656;28;20042;-45
2022/11/13 00:06:45;;;;;;;17.15;10.20;;;;;;;9.70;81.46;102729.75;5017019;28;20050;-47
2022/11/13 00:09:11;;;;;;;13.40;9.35;;;;;;;9.71;81.88;102722.16;5017913;28;20085;-49
2022/11/13 00:11:37;;;;;;;13.77;9.57;;;;;;;9.73;81.73;102718.00;5020056;28;20041;-44
2022/11/13 00:14:02;;;;;;;16.52;10.65;;;;;;;9.72;81.36;102716.22;5017835;28;20409;-50
2022/11/13 00:16:28;;;;;;;18.00;11.00;;;;;;;9.70;81.31;102715.22;5016119;28;20049;-47
2022/11/13 00:18:53;;;;;;;18.80;10.95;;;;;;;9.70;81.13;102704.06;5018185;28;20049;-51
2022/11/13 00:21:22;;;;;;;14.65;10.02;;;;;;;9.72;81.68;102712.78;5003924;28;20092;-46
2022/11/13 00:23:48;;;;;;;13.32;9.32;;;;;;;9.70;81.50;102717.78;5015857;28;20112;-47
2022/11/13 00:26:16;;;;;;;13.13;9.15;;;;;;;9.70;81.37;102709.19;5018258;28;20131;-46
2022/11/13 00:28:42;;;;;;;14.25;8.95;;;;;;;9.67;81.42;102718.50;5017682;28;20080;-47
2022/11/13 00:31:08;;;;;;;16.65;9.10;;;;;;;9.65;81.18;102716.66;5019757;28;20116;-47
2022/11/13 00:33:34;;;;;;;16.40;9.75;;;;;;;9.64;81.17;102700.31;5015278;28;20132;-45
2022/11/13 00:36:07;;;;;;;14.90;9.55;;;;;;;9.70;81.20;102704.06;5018397;28;20145;-51
2022/11/13 00:38:34;;;;;;;14.13;9.23;;;;;;;9.56;81.03;102704.09;5012194;28;20381;-46
2022/11/13 00:40:59;;;;;;;12.95;8.68;;;;;;;9.58;81.10;102702.50;5015651;28;20179;-48
2022/11/13 00:43:25;;;;;;;13.25;8.65;;;;;;;9.55;80.68;102699.78;5012129;28;20469;-46
2022/11/13 00:45:51;;;;;;;14.23;8.82;;;;;;;9.56;80.49;102695.53;5014732;28;20167;-47
2022/11/13 00:48:16;;;;;;;15.25;9.25;;;;;;;9.51;80.47;102690.09;5013781;28;20037;-50
2022/11/13 00:50:42;;;;;;;15.38;9.10;;;;;;;9.46;80.32;102690.59;5018659;28;20060;-50
2022/11/13 00:53:07;;;;;;;15.55;9.00;;;;;;;9.38;80.10;102693.59;5017191;28;20053;-46
2022/11/13 00:55:33;;;;;;;14.60;8.90;;;;;;;9.37;80.28;102688.38;5015518;28;20057;-46
2022/11/13 00:57:58;;;;;;;16.83;9.82;;;;;;;9.34;80.67;102683.94;5015151;28;20053;-43
2022/11/13 01:00:23;;;;;;;17.83;9.52;;;;;;;9.35;80.25;102684.81;5015281;28;20049;-49
2022/11/13 01:02:49;;;;;;;14.27;8.82;;;;;;;9.34;80.58;102683.94;5019394;28;20117;-47
2022/11/13 01:05:14;;;;;;;13.60;8.98;;;;;;;9.34;80.29;102677.91;5015010;28;20037;-46
2022/11/13 01:07:40;;;;;;;14.65;8.73;;;;;;;9.29;80.34;102679.31;5017615;28;20053;-50
2022/11/13 01:10:06;;;;;;;13.68;9.00;;;;;;;9.27;80.53;102675.75;5015171;28;20041;-49
2022/11/13 01:12:32;;;;;;;14.45;8.40;;;;;;;9.32;80.60;102680.38;5016465;28;20174;-50
2022/11/13 01:14:57;;;;;;;19.88;9.52;;;;;;;9.30;80.44;102675.94;5016929;28;20494;-47
2022/11/13 01:17:23;;;;;;;15.07;8.98;;;;;;;9.31;80.35;102678.59;5015827;28;20132;-45
2022/11/13 01:19:48;;;;;;;17.30;9.63;;;;;;;9.34;80.67;102673.69;5016942;28;20060;-49
2022/11/13 01:22:14;;;;;;;16.92;8.70;;;;;;;9.28;80.36;102670.72;5015224;28;20045;-48
2022/11/13 01:24:39;;;;;;;13.50;8.88;;;;;;;9.30;80.61;102678.53;5015000;28;20041;-48
2022/11/13 01:27:04;;;;;;;13.65;8.90;;;;;;;9.20;80.73;102679.63;5016055;28;20041;-50
2022/11/13 01:29:30;;;;;;;13.50;9.23;;;;;;;9.25;80.35;102675.66;5016617;28;20137;-51
2022/11/13 01:31:56;;;;;;;14.75;9.20;;;;;;;9.31;80.20;102675.16;5015795;28;20040;-46
2022/11/13 01:34:21;;;;;;;14.93;9.40;;;;;;;9.34;79.98;102670.19;5013906;28;20029;-46
2022/11/13 01:36:46;;;;;;;19.13;9.60;;;;;;;9.31;79.80;102670.91;5015807;28;20127;-46
2022/11/13 01:39:12;;;;;;;14.27;9.23;;;;;;;9.33;79.96;102666.75;5015393;28;20116;-48
2022/11/13 01:41:38;;;;;;;15.82;10.18;;;;;;;9.35;79.96;102652.34;5004101;28;20025;-52
2022/11/13 01:44:09;;;;;;;14.55;9.27;;;;;;;9.34;79.64;102657.34;5016458;28;20072;-51
2022/11/13 01:46:39;;;;;;;15.85;9.52;;;;;;;9.39;79.61;102666.22;5015364;28;20037;-51
2022/11/13 01:49:10;;;;;;;15.25;9.05;;;;;;;9.37;79.36;102658.44;5011338;28;20228;-49
2022/11/13 01:51:40;;;;;;;17.10;9.30;;;;;;;9.38;79.17;102655.06;5018472;28;20041;-47
2022/11/13 01:54:17;;;;;;;17.23;9.07;;;;;;;9.44;79.12;102664.84;5013606;28;20481;-46
2022/11/13 01:56:43;;;;;;;13.88;8.40;;;;;;;9.42;78.76;102657.84;5016449;28;20516;-50
2022/11/13 01:59:14;;;;;;;11.10;8.38;;;;;;;9.41;78.73;102654.41;5017141;28;20029;-50
2022/11/13 02:01:40;;;;;;;9.93;7.57;;;;;;;9.41;78.53;102649.25;5016771;28;20029;-50
2022/11/13 02:04:05;;;;;;;11.25;7.93;;;;;;;9.37;78.42;102637.03;5001898;28;20045;-50
2022/11/13 02:06:41;;;;;;;13.18;8.10;;;;;;;9.39;78.40;102633.75;5017049;28;20062;-50
2022/11/13 02:09:08;;;;;;;15.13;8.27;;;;;;;9.33;78.17;102630.78;5019835;28;20021;-47
2022/11/13 02:11:35;;;;;;;14.20;8.27;;;;;;;9.34;78.09;102626.53;5012261;28;20038;-46
2022/11/13 02:14:01;;;;;;;15.43;8.80;;;;;;;9.29;78.03;102625.41;5015498;28;20083;-50
2022/11/13 02:16:31;;;;;;;14.77;8.55;;;;;;;9.33;77.99;102617.06;5016473;28;20514;-46
2022/11/13 02:18:56;;;;;;;;;;;;;;;9.53;78.27;102618.31;5016547;28;20443;-55
2022/11/13 02:21:24;;;;;;;12.10;8.43;;;;;;;9.38;78.27;102620.81;5019089;28;19916;-48
2022/11/13 02:24:02;;;;;;;12.40;8.77;;;;;;;9.38;78.64;102619.13;5016572;28;20536;-47
2022/11/13 02:26:30;;;;;;;14.93;8.65;;;;;;;9.32;78.07;102611.06;5016101;28;20150;-46
2022/11/13 02:28:55;;;;;;;14.10;8.60;;;;;;;9.28;78.26;102618.47;5015842;28;20037;-47
2022/11/13 02:31:20;;;;;;;13.60;8.30;;;;;;;9.29;78.38;102613.44;5015704;28;20074;-50
2022/11/13 02:33:46;;;;;;;11.88;8.70;;;;;;;9.26;78.06;102612.38;5017247;28;20124;-46
2022/11/13 02:36:13;;;;;;;16.55;8.65;;;;;;;9.25;78.25;102608.03;5017079;28;20084;-49
2022/11/13 02:38:40;;;;;;;12.10;7.95;;;;;;;9.22;78.37;102615.53;5012184;28;20030;-48
2022/11/13 02:41:06;;;;;;;15.73;7.82;;;;;;;9.25;78.22;102611.47;5015652;28;20037;-51
2022/11/13 02:43:31;;;;;;;11.65;7.88;;;;;;;9.25;77.65;102614.06;5013881;28;20548;-46
2022/11/13 02:45:57;;;;;;;13.70;7.97;;;;;;;9.27;77.91;102603.88;5015803;28;20041;-44
2022/11/13 02:48:22;;;;;;;10.55;7.60;;;;;;;9.25;77.80;102603.78;5018205;28;20050;-46
2022/11/13 02:50:47;;;;;;;11.57;7.18;;;;;;;9.27;77.09;102609.00;5015569;28;20026;-49
2022/11/13 02:53:13;;;;;;;10.73;7.22;;;;;;;9.29;77.03;102602.31;5018643;28;20037;-49
2022/11/13 02:55:38;;;;;;;9.90;7.18;;;;;;;9.26;77.22;102592.72;5018578;28;20038;-50
2022/11/13 02:58:04;;;;;;;10.93;7.32;;;;;;;9.27;77.26;102596.16;5017596;28;20092;-44
2022/11/13 03:00:29;;;;;;;16.15;7.30;;;;;;;9.24;77.31;102593.44;5005173;28;20068;-50
2022/11/13 03:02:54;;;;;;;10.13;6.97;;;;;;;9.27;77.06;102589.34;5016608;28;20029;-51
2022/11/13 03:05:21;;;;;;;11.88;7.13;;;;;;;9.29;77.04;102592.03;5017821;28;20060;-48
2022/11/13 03:07:46;;;;;;;10.88;6.95;;;;;;;9.27;76.64;102593.59;5013471;28;20425;-46
2022/11/13 03:10:11;;;;;;;10.65;7.63;;;;;;;9.26;76.75;102590.16;5013892;28;20049;-43
2022/11/13 03:12:37;;;;;;;11.30;7.40;;;;;;;9.27;76.54;102588.47;5014779;28;20029;-44
2022/11/13 03:15:04;;;;;;;12.50;6.95;;;;;;;9.24;76.45;102585.72;5017631;28;20411;-49
2022/11/13 03:17:33;;;;;;;13.60;7.78;;;;;;;9.27;76.74;102581.66;5021266;28;20037;-44
2022/11/13 03:19:58;;;;;;;14.20;7.97;;;;;;;9.25;76.35;102577.22;5023308;28;20033;-49
2022/11/13 03:22:24;;;;;;;9.95;7.30;;;;;;;9.21;76.26;102571.00;5020502;28;20308;-48
2022/11/13 03:24:49;;;;;;;12.48;7.47;;;;;;;9.23;76.43;102571.13;5017934;28;20034;-50
2022/11/13 03:27:14;;;;;;;11.00;7.43;;;;;;;9.24;76.29;102570.34;5018245;28;20049;-47
2022/11/13 03:29:40;;;;;;;12.40;7.40;;;;;;;9.19;76.08;102566.59;5021239;28;20064;-44
2022/11/13 03:32:05;;;;;;;9.50;7.10;;;;;;;9.21;76.19;102559.84;5019667;28;20030;-48
2022/11/13 03:34:31;;;;;;;10.30;7.03;;;;;;;9.19;76.10;102564.03;5017262;28;20389;-59
2022/11/13 03:36:56;;;;;;;10.65;7.10;;;;;;;9.19;76.33;102551.19;5018769;28;20144;-47
2022/11/13 03:39:22;;;;;;;11.30;6.63;;;;;;;9.22;75.94;102554.84;5020244;28;20560;-46
2022/11/13 03:41:48;;;;;;;9.65;6.63;;;;;;;9.21;76.14;102552.16;5018240;28;20473;-47
2022/11/13 03:44:13;;;;;;;11.85;6.72;;;;;;;9.23;76.12;102554.03;5020957;28;20079;-49
2022/11/13 03:46:38;;;;;;;10.35;6.57;;;;;;;9.26;76.32;102558.47;5021795;28;20037;-46
2022/11/13 03:49:04;;;;;;;10.95;6.95;;;;;;;9.23;76.11;102555.72;5005062;28;20037;-47
2022/11/13 03:51:29;;;;;;;10.25;6.70;;;;;;;9.25;76.05;102551.56;5018089;28;20079;-48
2022/11/13 03:53:54;;;;;;;9.10;6.57;;;;;;;9.23;76.03;102555.72;5018491;28;20029;-50
2022/11/13 03:56:20;;;;;;;11.02;6.43;;;;;;;9.19;76.04;102552.06;5018109;28;20034;-49
2022/11/13 03:58:45;;;;;;;8.85;6.28;;;;;;;9.18;75.96;102555.44;5020500;28;20040;-47
2022/11/13 04:01:10;;;;;;;12.15;7.13;;;;;;;9.23;76.03;102550.59;5017985;28;20177;-47
2022/11/13 04:03:36;;;;;;;11.40;6.60;;;;;;;9.21;75.89;102545.34;5016921;28;20069;-47
2022/11/13 04:06:01;;;;;;;9.40;6.65;;;;;;;9.25;75.67;102537.03;5015863;28;20053;-46
2022/11/13 04:08:26;;;;;;;10.05;6.43;;;;;;;9.21;75.66;102536.75;5017803;28;20144;-46
2022/11/13 04:10:52;;;;;;;9.98;6.35;;;;;;;9.22;76.06;102528.25;5020437;28;20389;-48
2022/11/13 04:13:17;;;;;;;10.13;6.53;;;;;;;9.22;75.87;102528.25;5021247;28;20133;-46
2022/11/13 04:15:42;;;;;;;9.65;6.57;;;;;;;9.25;75.72;102526.78;5017274;28;20136;-50
2022/11/13 04:18:09;;;;;;;9.07;6.70;;;;;;;9.22;75.68;102518.91;5016652;28;20037;-46
2022/11/13 04:20:34;;;;;;;10.60;6.90;;;;;;;9.21;75.88;102526.50;5019475;28;20429;-44
2022/11/13 04:22:59;;;;;;;9.63;6.75;;;;;;;9.24;75.79;102516.44;5021048;28;20128;-47
2022/11/13 04:25:25;;;;;;;11.55;6.20;;;;;;;9.24;75.46;102519.88;5022393;28;20040;-44
2022/11/13 04:27:52;;;;;;;10.85;6.70;;;;;;;9.24;75.69;102519.00;5020544;28;20036;-48
2022/11/13 04:30:18;;;;;;;11.00;6.68;;;;;;;9.23;75.47;102517.22;5021871;28;20072;-47
2022/11/13 04:32:44;;;;;;;10.57;7.05;;;;;;;9.24;75.57;102514.75;5022152;28;20052;-49
2022/11/13 04:35:09;;;;;;;8.13;6.70;;;;;;;9.23;75.67;102510.41;5022967;28;20025;-48
2022/11/13 04:37:35;;;;;;;9.18;6.68;;;;;;;9.26;75.92;102505.44;5022108;28;20039;-51
2022/11/13 04:40:01;;;;;;;9.85;6.85;;;;;;;9.23;75.49;102506.97;5021800;28;20695;-45
2022/11/13 04:45:10;;;;;;;11.35;6.93;;;;;;;9.24;75.57;102495.91;5019436;28;20106;-44
2022/11/13 04:47:35;;;;;;;10.52;6.97;;;;;;;9.26;75.23;102497.75;5006730;28;20670;-51
2022/11/13 04:50:01;;;;;;;10.77;7.25;;;;;;;9.23;75.24;102502.72;5023329;28;20120;-44
2022/11/13 04:52:27;;;;;;;11.93;7.15;;;;;;;9.21;75.44;102509.41;5020513;28;20029;-50
2022/11/13 04:54:53;;;;;;;11.07;6.90;;;;;;;9.21;75.34;102506.84;5016834;28;20757;-49
2022/11/13 04:57:19;;;;;;;8.63;6.40;;;;;;;9.16;75.67;102503.16;5020296;28;20056;-47
2022/11/13 04:59:44;;;;;;;9.48;6.20;;;;;;;9.19;75.24;102505.00;5019356;28;20533;-46
2022/11/13 05:02:09;;;;;;;11.50;7.15;;;;;;;9.20;75.03;102505.06;5017243;28;20064;-47
2022/11/13 05:04:35;;;;;;;11.50;6.95;;;;;;;9.20;74.92;102510.22;5017936;28;20493;-46
2022/11/13 05:07:00;;;;;;;9.68;7.40;;;;;;;9.16;74.68;102504.78;5014822;28;20058;-47
2022/11/13 05:09:25;;;;;;;9.18;6.88;;;;;;;9.17;74.89;102509.16;5015515;28;20124;-47
2022/11/13 05:11:51;;;;;;;9.35;6.93;;;;;;;9.17;74.88;102499.78;5019484;28;20615;-50
2022/11/13 05:14:16;;;;;;;10.77;6.75;;;;;;;9.17;74.98;102499.78;5015510;28;20117;-49
2022/11/13 05:16:42;;;;;;;11.93;7.10;;;;;;;9.14;74.77;102503.03;5016783;28;20410;-47
2022/11/13 05:19:07;;;;;;;10.27;7.45;;;;;;;9.14;75.22;102503.03;5015207;28;20029;-45
2022/11/13 05:21:34;;;;;;;11.70;7.22;;;;;;;9.12;74.78;102507.19;5017903;28;20466;-44
2022/11/13 05:23:59;;;;;;;10.02;6.82;;;;;;;9.10;74.87;102498.53;5019419;28;20029;-44
2022/11/13 05:26:28;;;;;;;11.13;6.95;;;;;;;9.11;74.73;102495.16;5019343;28;20029;-44
2022/11/13 05:28:59;;;;;;;9.43;6.70;;;;;;;9.10;74.85;102488.25;5018690;28;20037;-48
2022/11/13 05:31:25;;;;;;;11.20;6.85;;;;;;;9.07;74.76;102490.63;5020544;28;22401;-44
2022/11/13 05:33:51;;;;;;;10.82;6.78;;;;;;;9.05;74.68;102483.66;5019147;28;20049;-44
2022/11/13 05:36:18;;;;;;;10.23;7.40;;;;;;;9.03;74.85;102480.09;5016195;28;20042;-50
2022/11/13 05:38:44;;;;;;;10.77;7.10;;;;;;;9.00;75.05;102480.78;5017888;28;20029;-47
2022/11/13 05:41:20;;;;;;;11.60;7.03;;;;;;;8.98;75.11;102479.84;5018081;28;20084;-47
2022/11/13 05:43:46;;;;;;;9.82;6.63;;;;;;;8.95;75.15;102479.63;5015841;28;20026;-49
2022/11/13 05:46:14;;;;;;;10.75;6.88;;;;;;;8.90;75.15;102478.47;5003882;28;21890;-49
2022/11/13 05:48:40;;;;;;;12.57;6.78;;;;;;;8.87;75.43;102491.13;5018412;28;20033;-44
2022/11/13 05:51:08;;;;;;;10.57;7.22;;;;;;;8.88;75.35;102484.31;5015724;28;20475;-46
2022/11/13 05:53:35;;;;;;;10.85;6.80;;;;;;;8.79;75.22;102487.19;5019434;28;20574;-49
2022/11/13 05:56:13;;;;;;;8.98;6.47;;;;;;;8.79;75.50;102482.06;5016747;28;20037;-49
2022/11/13 05:58:39;;;;;;;9.40;6.72;;;;;;;8.70;75.35;102482.38;5016845;28;20025;-47
2022/11/13 06:01:06;;;;;;;8.70;7.00;;;;;;;8.70;75.34;102481.50;5018229;28;20040;-50
2022/11/13 06:03:31;;;;;;;10.18;6.45;;;;;;;8.63;75.72;102487.94;5018955;28;20032;-45
2022/11/13 06:05:57;;;;;;;9.05;6.40;;;;;;;8.63;75.60;102485.38;5015059;28;20034;-47
2022/11/13 06:08:23;;;;;;;9.90;6.65;;;;;;;8.56;75.66;102483.22;5020313;28;20049;-48
2022/11/13 06:10:48;;;;;;;10.70;6.85;;;;;;;8.47;75.68;102482.63;5012855;28;20033;-48
2022/11/13 06:13:13;;;;;;;10.63;6.43;;;;;;;8.45;75.93;102477.44;5011255;28;20052;-47
2022/11/13 06:15:39;;;;;;;15.13;6.88;;;;;;;8.39;75.72;102466.78;5015882;28;20040;-47
2022/11/13 06:18:04;;;;;;;10.98;6.97;;;;;;;8.38;76.08;102474.41;5019606;28;20033;-46
2022/11/13 06:20:29;;;;;;;9.48;6.95;;;;;;;8.32;75.87;102464.59;5012819;28;20034;-47
2022/11/13 06:22:56;;;;;;;10.57;6.80;;;;;;;8.29;75.88;102460.16;5016808;28;20103;-47
2022/11/13 06:25:22;;;;;;;8.90;6.60;;;;;;;8.28;75.92;102458.38;5016318;28;20072;-45
2022/11/13 06:27:47;;;;;;;10.02;6.68;;;;;;;8.25;75.95;102465.91;5013958;28;20076;-48
2022/11/13 06:30:13;;;;;;;10.93;6.90;;;;;;;8.18;76.30;102463.72;5018007;28;20042;-50
2022/11/13 06:32:38;;;;;;;11.27;7.28;;;;;;;8.20;76.02;102471.53;5015404;28;20026;-48
2022/11/13 06:35:04;;;;;;;9.20;7.03;;;;;;;8.17;75.77;102464.50;5005387;28;20382;-47
2022/11/13 06:37:29;;;;;;;11.38;6.82;;;;;;;8.13;75.75;102459.09;5016773;28;20029;-44
2022/11/13 06:39:54;;;;;;;11.38;6.80;;;;;;;8.07;75.96;102459.63;5018683;28;20045;-52
2022/11/13 06:42:20;;;;;;;10.07;7.00;;;;;;;8.05;75.52;102459.50;5019055;28;20041;-52
2022/11/13 06:44:45;;;;;;;11.23;6.97;;;;;;;8.01;76.06;102456.66;5014286;28;20066;-47
2022/11/13 06:47:10;;;;;;;11.35;7.20;;;;;;;8.03;75.85;102453.41;4995711;28;20053;-51
2022/11/13 06:49:36;;;;;;;10.55;6.97;;;;;;;8.02;75.97;102451.63;5017724;28;20063;-47
2022/11/13 06:52:01;;;;;;;10.02;7.22;;;;;;;7.99;75.99;102453.97;5022083;28;20053;-47
2022/11/13 06:54:26;;;;;;;12.60;7.05;;;;;;;7.98;76.31;102444.53;5020171;28;20044;-47
2022/11/13 06:56:52;;;;;;;12.93;7.60;;;;;;;7.93;76.34;102447.56;5017610;28;20383;-45
2022/11/13 06:59:17;;;;;;;11.82;7.38;;;;;;;7.91;76.27;102444.94;5021393;28;20514;-51
2022/11/13 07:01:42;;;;;;;11.13;7.38;;;;;;;7.99;76.36;102448.84;5024568;28;20053;-45
2022/11/13 07:04:11;;;;;;;11.45;7.30;;;;;;;7.97;76.70;102447.88;5022060;28;20464;-50
2022/11/13 07:06:36;;;;;;;11.00;7.22;;;;;;;7.93;76.50;102447.56;5022291;28;20046;-46
2022/11/13 07:09:01;;;;;;;14.15;7.60;;;;;;;7.91;76.63;102439.81;5023486;28;20500;-46
2022/11/13 07:11:27;;;;;;;11.80;8.07;;;;;;;7.91;76.72;102444.03;5023779;28;20026;-50
2022/11/13 07:13:52;;;;;;;12.30;7.50;;;;;;;7.94;76.63;102450.22;5023756;28;20025;-45
2022/11/13 07:16:17;;;;;;;10.82;7.57;;;;;;;7.88;76.79;102444.72;5021462;28;20120;-48
2022/11/13 07:18:53;;;;;;;10.80;7.80;;;;;;;7.85;76.84;102441.97;5023384;28;20064;-48
2022/11/13 07:21:19;;;;;;;13.65;8.02;;;;;;;7.83;77.12;102447.81;5020242;28;20029;-46
2022/11/13 07:23:47;;;;;;;11.77;7.38;;;;;;;7.86;77.24;102446.31;5021011;28;20025;-46
2022/11/13 07:26:13;;;;;;;11.88;7.50;;;;;;;7.82;77.19;102444.31;5019707;28;20033;-51
2022/11/13 07:28:38;;;;;;;13.27;7.80;;;;;;;7.82;77.53;102440.88;5017314;28;20563;-47
2022/11/13 07:31:05;;;;;;;12.55;7.60;;;;;;;7.84;77.61;102440.22;5019281;28;20029;-50
2022/11/13 07:33:30;;;;;;;12.93;7.30;;;;;;;7.83;77.93;102442.69;5019641;28;20036;-46
2022/11/13 07:35:56;;;;;;;11.68;7.30;;;;;;;7.80;77.95;102446.78;5022807;28;20444;-48
2022/11/13 07:38:22;;;;;;;9.95;7.30;;;;;;;7.83;77.73;102440.13;5021347;28;20087;-49
2022/11/13 07:40:48;;;;;;;12.68;7.78;;;;;;;7.80;78.26;102431.44;5023684;28;20409;-48
2022/11/13 07:43:13;;;;;;;11.60;7.80;;;;;;;7.82;78.60;102436.66;5025328;28;20029;-47
2022/11/13 07:45:38;;;;;;;12.73;7.88;;;;;;;7.77;78.37;102431.25;5019933;28;20359;-47
2022/11/13 07:48:04;;;;;;;10.10;7.85;;;;;;;7.84;78.35;102441.88;5020610;28;20061;-47
2022/11/13 07:50:33;;;;;;;12.27;8.32;;;;;;;7.83;78.33;102437.56;5025644;28;20029;-46
2022/11/13 07:53:00;;;;;;;9.90;8.05;;;;;;;7.85;78.49;102433.41;5024864;28;20030;-47
2022/11/13 07:55:27;;;;;;;11.02;7.85;;;;;;;7.75;78.89;102437.94;5023091;28;20112;-55
2022/11/13 07:57:56;;;;;;;12.68;7.97;;;;;;;7.82;78.92;102430.63;5023828;28;20190;-48
2022/11/13 08:00:23;;;;;;;15.00;7.60;;;;;;;7.79;79.07;102437.34;5025591;28;20469;-49
2022/11/13 08:02:48;;;;;;;11.85;7.43;;;;;;;7.77;79.18;102428.69;5026053;28;20529;-48
2022/11/13 08:05:14;;;;;;;10.32;7.45;;;;;;;7.79;79.37;102431.34;5021626;28;20121;-50
2022/11/13 08:07:39;;;;;;;10.00;7.45;;;;;;;7.80;80.15;102435.66;5022166;28;20066;-52
2022/11/13 08:10:06;;;;;;;14.15;7.50;;;;;;;7.87;79.42;102430.16;5021380;28;20049;-50
2022/11/13 08:12:31;;;;;;;10.65;7.40;;;;;;;7.90;79.53;102427.78;5017857;28;20116;-47
2022/11/13 08:14:56;;;;;;;13.15;7.38;;;;;;;7.91;80.29;102434.69;5021671;28;20442;-50
2022/11/13 08:17:22;;;;;;;12.30;7.43;;;;;;;7.95;79.79;102428.97;5020150;28;20087;-53
2022/11/13 08:19:47;;;;;;;10.43;7.28;;;;;;;8.00;79.91;102435.25;5020266;28;20037;-52
2022/11/13 08:22:12;;;;;;;11.88;7.45;;;;;;;7.97;80.22;102427.38;5018009;28;20037;-53
2022/11/13 08:24:38;;;;;;;10.98;7.25;;;;;;;7.98;80.23;102425.72;5019020;28;20037;-51
2022/11/13 08:27:05;;;;;;;12.07;7.88;;;;;;;8.01;80.46;102424.25;5018209;28;20112;-51
2022/11/13 08:29:30;;;;;;;11.50;7.63;;;;;;;8.04;80.19;102416.72;5019114;28;20037;-52
2022/11/13 08:31:56;;;;;;;14.95;8.18;;;;;;;8.01;80.54;102411.44;5020137;28;20057;-54
2022/11/13 08:34:21;;;;;;;12.70;8.05;;;;;;;8.03;80.81;102411.53;5018176;28;20068;-49
2022/11/13 08:36:47;;;;;;;12.25;7.75;;;;;;;8.06;80.54;102417.72;5022013;28;20037;-50
2022/11/13 08:39:13;;;;;;;12.25;8.07;;;;;;;8.07;80.57;102405.81;5021079;28;20025;-53
2022/11/13 08:41:38;;;;;;;12.02;7.97;;;;;;;8.11;80.43;102404.31;5018563;28;20507;-48
2022/11/13 08:44:04;;;;;;;13.98;8.38;;;;;;;8.13;80.78;102398.50;5023827;28;20026;-53
2022/11/13 08:46:29;;;;;;;12.00;8.00;;;;;;;8.25;80.46;102406.03;5019582;28;20104;-52
2022/11/13 08:48:54;;;;;;;12.75;8.68;;;;;;;8.39;80.51;102405.28;5022132;28;20039;-51
2022/11/13 08:51:20;;;;;;;12.23;7.90;;;;;;;8.61;80.01;102402.31;5021104;28;20065;-52
2022/11/13 08:53:45;;;;;;;11.80;7.97;;;;;;;8.75;79.49;102398.94;5019563;28;20030;-51
2022/11/13 08:56:11;;;;;;;11.90;7.75;;;;;;;8.92;78.87;102397.38;5015752;28;20540;-52
2022/11/13 08:58:36;;;;;;;10.60;7.32;;;;;;;9.10;78.00;102395.88;5017898;28;20390;-53
2022/11/13 09:01:03;;;;;;;12.27;7.53;;;;;;;9.32;77.87;102402.25;5021095;28;20039;-51
2022/11/13 09:03:28;;;;;;;12.60;7.45;;;;;;;9.49;76.77;102396.38;5013120;28;20402;-58
2022/11/13 09:05:54;;;;;;;10.88;8.27;;;;;;;9.57;76.60;102405.41;5015561;28;20052;-57
2022/11/13 09:08:19;;;;;;;12.35;8.25;;;;;;;9.70;75.25;102401.84;5016164;28;20068;-53
2022/11/13 09:10:44;;;;;;;11.70;7.57;;;;;;;9.77;74.83;102403.06;5016804;28;20148;-53
2022/11/13 09:13:10;;;;;;;10.38;7.75;;;;;;;9.80;72.80;102406.69;5018965;28;20037;-52
2022/11/13 09:15:37;;;;;;;9.50;6.88;;;;;;;9.92;71.33;102391.06;5022781;28;20030;-53
2022/11/13 09:18:03;;;;;;;8.68;7.28;;;;;;;9.96;72.87;102395.59;5005997;28;20029;-53
2022/11/13 09:20:30;;;;;;;10.18;7.28;;;;;;;10.04;73.23;102393.44;5006577;28;20026;-53
2022/11/13 09:23:00;;;;;;;8.43;7.10;;;;;;;10.08;73.31;102386.00;5021951;28;20037;-53
2022/11/13 09:25:26;;;;;;;10.20;7.20;;;;;;;10.17;72.65;102380.44;5025335;28;20057;-53
2022/11/13 09:27:59;;;;;;;11.55;6.78;;;;;;;10.17;72.70;102372.72;5023648;28;20075;-52
2022/11/13 09:30:26;;;;;;;9.52;6.80;;;;;;;10.20;70.34;102376.38;5023295;28;20395;-54
2022/11/13 09:32:54;;;;;;;10.27;6.60;;;;;;;10.25;72.64;102373.16;5008447;28;20041;-54
2022/11/13 09:35:35;;;;;;;9.43;6.97;;;;;;;10.28;71.86;102374.22;5022239;28;20378;-53
2022/11/13 09:38:03;;;;;;;9.43;6.35;;;;;;;10.36;72.40;102374.63;5021966;28;20038;-53
2022/11/13 09:40:36;;;;;;;8.73;6.70;;;;;;;10.42;70.60;102375.84;5018439;28;20489;-53
2022/11/13 09:43:05;;;;;;;8.25;6.32;;;;;;;10.42;70.24;102373.25;5021248;28;20033;-54
2022/11/13 09:45:32;;;;;;;7.80;6.43;;;;;;;10.48;69.49;102383.00;5023543;28;20067;-52
2022/11/13 09:48:22;;;;;;;8.55;6.53;;;;;;;10.55;69.31;102384.19;5004638;28;20643;-53
2022/11/13 09:50:47;;;;;;;8.98;5.75;;;;;;;10.58;70.68;102379.22;5014368;28;20458;-53
2022/11/13 09:53:13;;;;;;;8.85;6.68;;;;;;;10.63;70.79;102373.50;5022207;28;20108;-52
2022/11/13 09:55:53;;;;;;;8.68;5.88;;;;;;;10.69;71.05;102373.81;5026144;28;20049;-54
2022/11/13 09:58:30;;;;;;;7.95;6.07;;;;;;;10.81;71.26;102377.84;5022241;28;20152;-54
2022/11/13 10:00:57;;;;;;;7.10;6.03;;;;;;;10.91;71.11;102372.34;5025506;28;20417;-54
2022/11/13 10:03:38;;;;;;;6.78;5.88;;;;;;;11.04;71.30;102371.25;5025083;28;20036;-54
2022/11/13 10:06:42;;;;;;;8.13;6.28;;;;;;;11.10;71.21;102372.47;5022966;28;20061;-54
2022/11/13 10:09:42;;;;;;;8.50;6.72;;;;;;;11.18;71.65;102373.72;5010023;28;20418;-53
2022/11/13 10:12:09;;;;;;;6.90;5.63;;;;;;;11.26;70.53;102371.53;5014907;28;20041;-53
2022/11/13 10:14:44;;;;;;;9.57;6.03;;;;;;;11.34;70.47;102371.91;5027248;28;20048;-53
2022/11/13 10:17:23;;;;;;;8.40;5.97;;;;;;;11.42;70.59;102373.16;5022493;28;20076;-54
2022/11/13 10:19:58;;;;;;;8.23;5.40;;;;;;;11.45;69.43;102375.88;5023213;28;20053;-53
2022/11/13 10:22:30;;;;;;;8.23;5.70;;;;;;;11.51;68.18;102371.03;5022461;28;20025;-54
2022/11/13 10:25:16;;;;;;;8.73;5.70;;;;;;;11.59;68.64;102362.00;5026665;28;20569;-54
2022/11/13 10:27:47;;;;;;;6.55;5.32;;;;;;;11.62;66.01;102359.53;5021850;28;20473;-54
2022/11/13 10:30:15;;;;;;;7.03;5.25;;;;;;;11.65;64.42;102359.72;5023982;28;20104;-54
2022/11/13 10:32:41;;;;;;;8.98;5.38;;;;;;;11.70;66.31;102353.06;5022953;28;20026;-53
2022/11/13 10:35:06;;;;;;;8.50;5.55;;;;;;;11.81;66.56;102348.44;5028518;28;20043;-53
2022/11/13 10:37:44;;;;;;;6.97;5.50;;;;;;;11.86;67.13;102343.50;5024409;28;20385;-53
2022/11/13 10:40:09;;;;;;;6.18;5.15;;;;;;;11.86;67.02;102334.06;5025040;28;20029;-52
2022/11/13 10:42:40;;;;;;;7.82;5.57;;;;;;;11.89;66.47;102333.31;5027090;28;20655;-53
2022/11/13 10:45:15;;;;;;;8.30;6.05;;;;;;;11.92;67.42;102330.91;5028611;28;20554;-57
2022/11/13 10:47:49;;;;;;;7.78;6.03;;;;;;;11.95;65.27;102325.88;5024356;28;20032;-56
2022/11/13 10:50:26;;;;;;;8.68;6.03;;;;;;;11.99;64.11;102322.63;5023268;28;20034;-54
2022/11/13 10:52:54;;;;;;;6.80;6.05;;;;;;;12.05;64.67;102313.47;5025872;28;20025;-53
2022/11/13 10:55:39;;;;;;;7.20;5.53;;;;;;;12.19;65.92;102316.66;5029286;28;20505;-53
2022/11/13 10:58:18;;;;;;;6.18;5.25;;;;;;;12.20;66.20;102312.41;5029207;28;20670;-56
2022/11/13 11:00:47;;;;;;;10.05;6.00;;;;;;;12.26;64.98;102308.41;5030642;28;20489;-53
2022/11/13 11:03:18;;;;;;;7.53;5.80;;;;;;;12.28;64.41;102301.59;5023104;28;20034;-54
2022/11/13 11:06:01;;;;;;;9.23;6.47;;;;;;;12.31;65.74;102304.31;5026333;28;20030;-54
2022/11/13 11:08:31;;;;;;;7.50;5.80;;;;;;;12.39;63.47;102301.22;5024698;28;20041;-53
2022/11/13 11:13:50;;;;;;;6.43;4.55;;;;;;;12.57;61.59;102286.50;5027010;28;20080;-54
2022/11/13 11:16:22;;;;;;;5.13;4.38;;;;;;;12.58;62.15;102288.28;5026763;28;20049;-54
2022/11/13 11:18:56;;;;;;;4.75;3.83;;;;;;;12.67;61.13;102283.47;5029076;28;20037;-51
2022/11/13 11:21:26;;;;;;;5.50;4.32;;;;;;;12.75;60.44;102286.41;5025064;28;20405;-53
2022/11/13 11:24:02;;;;;;;5.13;3.95;;;;;;;12.81;61.19;102286.66;5028915;28;20485;-52
2022/11/13 11:26:39;;;;;;;8.52;4.20;;;;;;;12.89;59.99;102286.16;5021188;28;20473;-54
2022/11/13 11:29:13;;;;;;;5.22;4.15;;;;;;;12.98;59.63;102284.75;5026936;28;20040;-53
2022/11/13 11:31:57;;;;;;;5.70;3.80;;;;;;;13.04;60.15;102283.31;5024098;28;20452;-53
2022/11/13 11:34:47;;;;;;;5.60;3.92;;;;;;;13.11;59.45;102275.00;5029152;28;20026;-53